sensor_id;sensor_type;location;lat;lon;timestamp;P1;durP1;ratioP1;P2;durP2;ratioP2
703;SDS011;335;48.694;9.120;2023-02-28T00:01:14;2.80;;;2.60;;
703;SDS011;335;48.694;9.120;2023-02-28T00:03:40;3.47;;;3.17;;
703;SDS011;335;48.694;9.120;2023-02-28T00:06:06;3.13;;;2.80;;
703;SDS011;335;48.694;9.120;2023-02-28T00:08:32;3.42;;;2.83;;
703;SDS011;335;48.694;9.120;2023-02-28T00:11:08;2.73;;;2.53;;
703;SDS011;335;48.694;9.120;2023-02-28T00:13:35;3.35;;;3.15;;
703;SDS011;335;48.694;9.120;2023-02-28T00:16:03;3.30;;;3.00;;
703;SDS011;335;48.694;9.120;2023-02-28T00:18:30;3.08;;;2.78;;
703;SDS011;335;48.694;9.120;2023-02-28T00:20:56;2.67;;;2.47;;
703;SDS011;335;48.694;9.120;2023-02-28T00:23:22;3.05;;;2.85;;
703;SDS011;335;48.694;9.120;2023-02-28T00:25:48;4.13;;;3.30;;
703;SDS011;335;48.694;9.120;2023-02-28T00:28:13;3.50;;;3.30;;
703;SDS011;335;48.694;9.120;2023-02-28T00:30:38;3.40;;;3.20;;
703;SDS011;335;48.694;9.120;2023-02-28T00:33:04;3.37;;;3.17;;
703;SDS011;335;48.694;9.120;2023-02-28T00:35:29;4.53;;;2.83;;
703;SDS011;335;48.694;9.120;2023-02-28T00:37:54;3.60;;;3.30;;
703;SDS011;335;48.694;9.120;2023-02-28T00:40:20;5.23;;;3.63;;
703;SDS011;335;48.694;9.120;2023-02-28T00:42:45;3.33;;;3.10;;
703;SDS011;335;48.694;9.120;2023-02-28T00:45:11;3.63;;;3.33;;
703;SDS011;335;48.694;9.120;2023-02-28T00:47:36;2.37;;;2.20;;
703;SDS011;335;48.694;9.120;2023-02-28T00:50:02;4.17;;;3.17;;
703;SDS011;335;48.694;9.120;2023-02-28T00:52:28;3.00;;;2.80;;
703;SDS011;335;48.694;9.120;2023-02-28T00:54:54;4.07;;;3.50;;
703;SDS011;335;48.694;9.120;2023-02-28T00:57:19;3.73;;;3.47;;
703;SDS011;335;48.694;9.120;2023-02-28T00:59:44;3.57;;;3.30;;
703;SDS011;335;48.694;9.120;2023-02-28T01:02:10;3.10;;;2.80;;
703;SDS011;335;48.694;9.120;2023-02-28T01:04:35;4.90;;;3.67;;
703;SDS011;335;48.694;9.120;2023-02-28T01:07:01;2.97;;;2.77;;
703;SDS011;335;48.694;9.120;2023-02-28T01:09:26;4.83;;;3.30;;
703;SDS011;335;48.694;9.120;2023-02-28T01:11:51;3.53;;;3.30;;
703;SDS011;335;48.694;9.120;2023-02-28T01:14:16;6.90;;;3.37;;
703;SDS011;335;48.694;9.120;2023-02-28T01:16:42;2.97;;;2.70;;
703;SDS011;335;48.694;9.120;2023-02-28T01:19:08;3.50;;;3.20;;
703;SDS011;335;48.694;9.120;2023-02-28T01:21:33;4.53;;;3.17;;
703;SDS011;335;48.694;9.120;2023-02-28T01:24:00;4.25;;;3.80;;
703;SDS011;335;48.694;9.120;2023-02-28T01:26:25;3.37;;;3.07;;
703;SDS011;335;48.694;9.120;2023-02-28T01:28:51;4.30;;;3.30;;
703;SDS011;335;48.694;9.120;2023-02-28T01:31:17;4.05;;;3.10;;
703;SDS011;335;48.694;9.120;2023-02-28T01:33:43;6.25;;;3.65;;
703;SDS011;335;48.694;9.120;2023-02-28T01:36:16;6.57;;;3.43;;
703;SDS011;335;48.694;9.120;2023-02-28T01:38:43;3.88;;;2.90;;
703;SDS011;335;48.694;9.120;2023-02-28T01:41:09;3.30;;;3.00;;
703;SDS011;335;48.694;9.120;2023-02-28T01:46:09;4.40;;;3.27;;
703;SDS011;335;48.694;9.120;2023-02-28T01:48:36;3.90;;;3.50;;
703;SDS011;335;48.694;9.120;2023-02-28T01:51:14;4.63;;;3.92;;
703;SDS011;335;48.694;9.120;2023-02-28T01:53:46;4.60;;;3.78;;
703;SDS011;335;48.694;9.120;2023-02-28T01:56:16;4.13;;;3.83;;
703;SDS011;335;48.694;9.120;2023-02-28T01:58:46;3.35;;;3.15;;
703;SDS011;335;48.694;9.120;2023-02-28T02:01:12;3.90;;;3.38;;
703;SDS011;335;48.694;9.120;2023-02-28T02:03:46;3.95;;;3.70;;
703;SDS011;335;48.694;9.120;2023-02-28T02:06:12;3.97;;;3.63;;
703;SDS011;335;48.694;9.120;2023-02-28T02:08:38;3.70;;;3.40;;
703;SDS011;335;48.694;9.120;2023-02-28T02:11:03;4.00;;;3.70;;
703;SDS011;335;48.694;9.120;2023-02-28T02:22:42;4.03;;;3.72;;
703;SDS011;335;48.694;9.120;2023-02-28T02:24:58;4.55;;;4.15;;
703;SDS011;335;48.694;9.120;2023-02-28T02:27:47;5.20;;;4.80;;
703;SDS011;335;48.694;9.120;2023-02-28T02:33:10;4.43;;;4.03;;
703;SDS011;335;48.694;9.120;2023-02-28T02:36:03;5.20;;;4.70;;
703;SDS011;335;48.694;9.120;2023-02-28T02:38:34;5.05;;;4.50;;
703;SDS011;335;48.694;9.120;2023-02-28T02:41:09;4.85;;;4.45;;
703;SDS011;335;48.694;9.120;2023-02-28T02:43:46;4.50;;;4.20;;
703;SDS011;335;48.694;9.120;2023-02-28T02:46:14;4.70;;;4.40;;
703;SDS011;335;48.694;9.120;2023-02-28T02:48:48;4.70;;;4.30;;
703;SDS011;335;48.694;9.120;2023-02-28T02:51:16;4.35;;;3.78;;
703;SDS011;335;48.694;9.120;2023-02-28T02:53:56;5.20;;;4.80;;
703;SDS011;335;48.694;9.120;2023-02-28T02:56:28;4.47;;;4.07;;
703;SDS011;335;48.694;9.120;2023-02-28T02:58:57;4.60;;;4.20;;
703;SDS011;335;48.694;9.120;2023-02-28T03:01:26;5.65;;;5.07;;
703;SDS011;335;48.694;9.120;2023-02-28T03:04:00;5.35;;;4.30;;
703;SDS011;335;48.694;9.120;2023-02-28T03:06:28;4.70;;;4.30;;
703;SDS011;335;48.694;9.120;2023-02-28T03:08:53;5.00;;;4.53;;
703;SDS011;335;48.694;9.120;2023-02-28T03:11:18;4.07;;;3.83;;
703;SDS011;335;48.694;9.120;2023-02-28T03:13:57;5.10;;;4.70;;
703;SDS011;335;48.694;9.120;2023-02-28T03:22:36;4.75;;;4.35;;
703;SDS011;335;48.694;9.120;2023-02-28T03:30:27;5.07;;;4.68;;
703;SDS011;335;48.694;9.120;2023-02-28T03:33:03;5.15;;;4.70;;
703;SDS011;335;48.694;9.120;2023-02-28T03:35:38;5.70;;;5.20;;
703;SDS011;335;48.694;9.120;2023-02-28T03:38:10;6.35;;;5.03;;
703;SDS011;335;48.694;9.120;2023-02-28T03:40:42;5.10;;;4.68;;
703;SDS011;335;48.694;9.120;2023-02-28T03:43:10;5.63;;;5.18;;
703;SDS011;335;48.694;9.120;2023-02-28T03:45:38;5.43;;;4.95;;
703;SDS011;335;48.694;9.120;2023-02-28T03:48:07;4.70;;;4.30;;
703;SDS011;335;48.694;9.120;2023-02-28T03:50:38;5.53;;;4.70;;
703;SDS011;335;48.694;9.120;2023-02-28T03:53:16;5.90;;;5.40;;
703;SDS011;335;48.694;9.120;2023-02-28T03:55:45;6.35;;;5.28;;
703;SDS011;335;48.694;9.120;2023-02-28T03:58:37;5.57;;;5.05;;
703;SDS011;335;48.694;9.120;2023-02-28T04:01:50;6.15;;;5.55;;
703;SDS011;335;48.694;9.120;2023-02-28T04:04:10;5.90;;;5.22;;
703;SDS011;335;48.694;9.120;2023-02-28T04:06:36;6.10;;;5.50;;
703;SDS011;335;48.694;9.120;2023-02-28T04:09:03;7.25;;;6.18;;
703;SDS011;335;48.694;9.120;2023-02-28T04:11:32;6.32;;;5.50;;
703;SDS011;335;48.694;9.120;2023-02-28T04:14:02;5.90;;;5.40;;
703;SDS011;335;48.694;9.120;2023-02-28T04:16:29;6.13;;;5.45;;
703;SDS011;335;48.694;9.120;2023-02-28T04:18:55;7.03;;;4.97;;
703;SDS011;335;48.694;9.120;2023-02-28T04:21:27;6.75;;;6.15;;
703;SDS011;335;48.694;9.120;2023-02-28T04:23:54;5.45;;;4.97;;
703;SDS011;335;48.694;9.120;2023-02-28T04:26:19;6.20;;;4.97;;
703;SDS011;335;48.694;9.120;2023-02-28T04:28:45;8.10;;;5.27;;
703;SDS011;335;48.694;9.120;2023-02-28T04:31:10;7.47;;;6.77;;
703;SDS011;335;48.694;9.120;2023-02-28T04:33:35;5.40;;;4.93;;
703;SDS011;335;48.694;9.120;2023-02-28T04:36:04;8.50;;;5.50;;
703;SDS011;335;48.694;9.120;2023-02-28T04:38:32;6.00;;;5.47;;
703;SDS011;335;48.694;9.120;2023-02-28T04:40:58;8.27;;;5.35;;
703;SDS011;335;48.694;9.120;2023-02-28T04:43:25;5.80;;;5.30;;
703;SDS011;335;48.694;9.120;2023-02-28T04:45:51;6.05;;;5.30;;
703;SDS011;335;48.694;9.120;2023-02-28T04:48:16;6.40;;;5.80;;
703;SDS011;335;48.694;9.120;2023-02-28T04:50:42;6.50;;;5.90;;
703;SDS011;335;48.694;9.120;2023-02-28T04:53:07;7.23;;;5.50;;
703;SDS011;335;48.694;9.120;2023-02-28T04:55:33;7.30;;;6.60;;
703;SDS011;335;48.694;9.120;2023-02-28T04:57:58;8.53;;;6.83;;
703;SDS011;335;48.694;9.120;2023-02-28T05:00:23;6.27;;;5.57;;
703;SDS011;335;48.694;9.120;2023-02-28T05:02:49;6.60;;;6.10;;
703;SDS011;335;48.694;9.120;2023-02-28T05:05:14;6.17;;;5.67;;
703;SDS011;335;48.694;9.120;2023-02-28T05:07:43;8.70;;;5.35;;
703;SDS011;335;48.694;9.120;2023-02-28T05:10:09;5.63;;;5.03;;
703;SDS011;335;48.694;9.120;2023-02-28T05:12:35;8.60;;;6.45;;
703;SDS011;335;48.694;9.120;2023-02-28T05:15:01;6.57;;;5.73;;
703;SDS011;335;48.694;9.120;2023-02-28T05:17:27;7.07;;;6.15;;
703;SDS011;335;48.694;9.120;2023-02-28T05:19:52;7.33;;;6.10;;
703;SDS011;335;48.694;9.120;2023-02-28T05:22:18;6.70;;;5.97;;
703;SDS011;335;48.694;9.120;2023-02-28T05:24:43;6.93;;;5.97;;
703;SDS011;335;48.694;9.120;2023-02-28T05:27:08;7.23;;;6.53;;
703;SDS011;335;48.694;9.120;2023-02-28T05:29:34;6.53;;;5.77;;
703;SDS011;335;48.694;9.120;2023-02-28T05:32:06;7.00;;;6.40;;
703;SDS011;335;48.694;9.120;2023-02-28T05:34:33;7.15;;;6.50;;
703;SDS011;335;48.694;9.120;2023-02-28T05:36:58;6.63;;;6.03;;
703;SDS011;335;48.694;9.120;2023-02-28T05:39:24;8.20;;;7.40;;
703;SDS011;335;48.694;9.120;2023-02-28T05:41:49;6.40;;;5.80;;
703;SDS011;335;48.694;9.120;2023-02-28T05:44:15;8.07;;;6.57;;
703;SDS011;335;48.694;9.120;2023-02-28T05:46:40;8.27;;;6.40;;
703;SDS011;335;48.694;9.120;2023-02-28T05:49:05;8.10;;;6.70;;
703;SDS011;335;48.694;9.120;2023-02-28T05:51:31;7.00;;;6.40;;
703;SDS011;335;48.694;9.120;2023-02-28T05:54:00;8.10;;;6.83;;
703;SDS011;335;48.694;9.120;2023-02-28T05:56:26;7.57;;;6.78;;
703;SDS011;335;48.694;9.120;2023-02-28T05:58:51;8.13;;;6.60;;
703;SDS011;335;48.694;9.120;2023-02-28T06:01:36;10.73;;;7.13;;
703;SDS011;335;48.694;9.120;2023-02-28T06:04:03;9.55;;;6.90;;
703;SDS011;335;48.694;9.120;2023-02-28T06:06:30;7.75;;;6.93;;
703;SDS011;335;48.694;9.120;2023-02-28T06:08:55;8.03;;;7.20;;
703;SDS011;335;48.694;9.120;2023-02-28T06:11:21;7.63;;;6.50;;
703;SDS011;335;48.694;9.120;2023-02-28T06:13:52;8.38;;;7.40;;
703;SDS011;335;48.694;9.120;2023-02-28T06:16:24;8.50;;;6.63;;
703;SDS011;335;48.694;9.120;2023-02-28T06:18:50;7.73;;;6.93;;
703;SDS011;335;48.694;9.120;2023-02-28T06:21:15;8.53;;;7.73;;
703;SDS011;335;48.694;9.120;2023-02-28T06:23:41;7.70;;;6.90;;
703;SDS011;335;48.694;9.120;2023-02-28T06:26:06;8.70;;;7.60;;
703;SDS011;335;48.694;9.120;2023-02-28T06:28:31;8.03;;;7.23;;
703;SDS011;335;48.694;9.120;2023-02-28T06:30:57;8.37;;;7.27;;
703;SDS011;335;48.694;9.120;2023-02-28T06:33:22;8.30;;;7.50;;
703;SDS011;335;48.694;9.120;2023-02-28T06:35:49;9.20;;;7.43;;
703;SDS011;335;48.694;9.120;2023-02-28T06:38:15;8.63;;;7.60;;
703;SDS011;335;48.694;9.120;2023-02-28T06:40:41;9.63;;;8.63;;
703;SDS011;335;48.694;9.120;2023-02-28T06:43:06;9.00;;;8.03;;
703;SDS011;335;48.694;9.120;2023-02-28T06:45:32;9.37;;;8.07;;
703;SDS011;335;48.694;9.120;2023-02-28T06:47:57;9.23;;;8.13;;
703;SDS011;335;48.694;9.120;2023-02-28T06:50:23;12.33;;;8.50;;
703;SDS011;335;48.694;9.120;2023-02-28T06:52:48;9.60;;;7.53;;
703;SDS011;335;48.694;9.120;2023-02-28T06:55:18;10.07;;;8.30;;
703;SDS011;335;48.694;9.120;2023-02-28T06:57:44;8.47;;;7.60;;
703;SDS011;335;48.694;9.120;2023-02-28T07:00:09;9.40;;;7.73;;
703;SDS011;335;48.694;9.120;2023-02-28T07:02:35;9.77;;;8.13;;
703;SDS011;335;48.694;9.120;2023-02-28T07:05:02;9.35;;;8.30;;
703;SDS011;335;48.694;9.120;2023-02-28T07:07:28;8.23;;;7.40;;
703;SDS011;335;48.694;9.120;2023-02-28T07:09:53;10.93;;;9.03;;
703;SDS011;335;48.694;9.120;2023-02-28T07:12:19;8.73;;;7.93;;
703;SDS011;335;48.694;9.120;2023-02-28T07:14:44;8.63;;;7.47;;
703;SDS011;335;48.694;9.120;2023-02-28T07:17:10;10.63;;;8.30;;
703;SDS011;335;48.694;9.120;2023-02-28T07:19:37;11.00;;;8.57;;
703;SDS011;335;48.694;9.120;2023-02-28T07:22:03;9.73;;;8.70;;
703;SDS011;335;48.694;9.120;2023-02-28T07:24:28;11.90;;;8.63;;
703;SDS011;335;48.694;9.120;2023-02-28T07:26:54;13.13;;;8.17;;
703;SDS011;335;48.694;9.120;2023-02-28T07:29:19;9.43;;;8.53;;
703;SDS011;335;48.694;9.120;2023-02-28T07:31:45;10.33;;;8.30;;
703;SDS011;335;48.694;9.120;2023-02-28T07:34:11;9.90;;;8.57;;
703;SDS011;335;48.694;9.120;2023-02-28T07:36:37;10.10;;;9.07;;
703;SDS011;335;48.694;9.120;2023-02-28T07:39:02;9.13;;;8.20;;
703;SDS011;335;48.694;9.120;2023-02-28T07:41:27;11.77;;;9.50;;
703;SDS011;335;48.694;9.120;2023-02-28T07:43:54;10.00;;;8.65;;
703;SDS011;335;48.694;9.120;2023-02-28T07:46:22;8.82;;;7.78;;
703;SDS011;335;48.694;9.120;2023-02-28T07:48:47;10.77;;;9.20;;
703;SDS011;335;48.694;9.120;2023-02-28T07:51:12;11.33;;;8.77;;
703;SDS011;335;48.694;9.120;2023-02-28T07:53:38;11.23;;;9.40;;
703;SDS011;335;48.694;9.120;2023-02-28T07:56:03;12.83;;;9.67;;
703;SDS011;335;48.694;9.120;2023-02-28T07:58:29;9.03;;;8.13;;
703;SDS011;335;48.694;9.120;2023-02-28T08:00:55;10.30;;;8.55;;
703;SDS011;335;48.694;9.120;2023-02-28T08:03:21;9.60;;;8.60;;
703;SDS011;335;48.694;9.120;2023-02-28T08:05:48;8.88;;;8.05;;
703;SDS011;335;48.694;9.120;2023-02-28T08:08:14;10.00;;;9.00;;
703;SDS011;335;48.694;9.120;2023-02-28T08:10:39;10.57;;;9.30;;
703;SDS011;335;48.694;9.120;2023-02-28T08:13:05;8.90;;;8.10;;
703;SDS011;335;48.694;9.120;2023-02-28T08:15:30;10.47;;;9.17;;
703;SDS011;335;48.694;9.120;2023-02-28T08:17:56;9.83;;;8.83;;
703;SDS011;335;48.694;9.120;2023-02-28T08:20:21;12.03;;;10.67;;
703;SDS011;335;48.694;9.120;2023-02-28T08:22:48;16.80;;;11.88;;
703;SDS011;335;48.694;9.120;2023-02-28T08:25:14;11.30;;;9.30;;
703;SDS011;335;48.694;9.120;2023-02-28T08:27:39;8.97;;;8.17;;
703;SDS011;335;48.694;9.120;2023-02-28T08:30:05;11.80;;;9.23;;
703;SDS011;335;48.694;9.120;2023-02-28T08:32:32;9.77;;;8.35;;
703;SDS011;335;48.694;9.120;2023-02-28T08:34:58;10.00;;;8.90;;
703;SDS011;335;48.694;9.120;2023-02-28T08:37:23;11.50;;;9.87;;
703;SDS011;335;48.694;9.120;2023-02-28T08:39:49;10.00;;;8.80;;
703;SDS011;335;48.694;9.120;2023-02-28T08:42:14;10.50;;;9.33;;
703;SDS011;335;48.694;9.120;2023-02-28T08:44:39;10.63;;;9.03;;
703;SDS011;335;48.694;9.120;2023-02-28T08:47:05;11.13;;;9.27;;
703;SDS011;335;48.694;9.120;2023-02-28T08:49:30;10.00;;;8.67;;
703;SDS011;335;48.694;9.120;2023-02-28T08:51:56;11.23;;;9.00;;
703;SDS011;335;48.694;9.120;2023-02-28T08:54:22;10.70;;;9.17;;
703;SDS011;335;48.694;9.120;2023-02-28T08:56:47;10.23;;;9.10;;
703;SDS011;335;48.694;9.120;2023-02-28T08:59:13;11.97;;;9.00;;
703;SDS011;335;48.694;9.120;2023-02-28T09:01:38;11.60;;;9.00;;
703;SDS011;335;48.694;9.120;2023-02-28T09:04:06;10.05;;;8.93;;
703;SDS011;335;48.694;9.120;2023-02-28T09:06:33;10.15;;;9.15;;
703;SDS011;335;48.694;9.120;2023-02-28T09:08:58;10.40;;;8.43;;
703;SDS011;335;48.694;9.120;2023-02-28T09:11:26;10.27;;;9.18;;
703;SDS011;335;48.694;9.120;2023-02-28T09:13:51;10.57;;;8.83;;
703;SDS011;335;48.694;9.120;2023-02-28T09:16:16;9.80;;;8.80;;
703;SDS011;335;48.694;9.120;2023-02-28T09:18:42;10.03;;;8.90;;
703;SDS011;335;48.694;9.120;2023-02-28T09:21:08;12.63;;;9.10;;
703;SDS011;335;48.694;9.120;2023-02-28T09:23:36;10.60;;;9.55;;
703;SDS011;335;48.694;9.120;2023-02-28T09:26:03;10.23;;;8.98;;
703;SDS011;335;48.694;9.120;2023-02-28T09:28:29;10.18;;;9.18;;
703;SDS011;335;48.694;9.120;2023-02-28T09:30:54;14.10;;;10.10;;
703;SDS011;335;48.694;9.120;2023-02-28T09:33:20;16.53;;;9.60;;
703;SDS011;335;48.694;9.120;2023-02-28T09:35:46;11.07;;;9.25;;
703;SDS011;335;48.694;9.120;2023-02-28T09:38:15;10.95;;;9.45;;
703;SDS011;335;48.694;9.120;2023-02-28T09:40:51;11.67;;;10.43;;
703;SDS011;335;48.694;9.120;2023-02-28T09:43:20;13.23;;;9.25;;
703;SDS011;335;48.694;9.120;2023-02-28T09:45:48;9.88;;;8.90;;
703;SDS011;335;48.694;9.120;2023-02-28T09:48:21;9.60;;;8.60;;
703;SDS011;335;48.694;9.120;2023-02-28T09:50:52;10.60;;;9.43;;
703;SDS011;335;48.694;9.120;2023-02-28T09:56:01;11.52;;;9.75;;
703;SDS011;335;48.694;9.120;2023-02-28T10:01:10;13.82;;;9.23;;
703;SDS011;335;48.694;9.120;2023-02-28T10:03:43;11.32;;;9.55;;
703;SDS011;335;48.694;9.120;2023-02-28T10:06:19;14.23;;;11.00;;
703;SDS011;335;48.694;9.120;2023-02-28T10:09:01;9.18;;;8.38;;
703;SDS011;335;48.694;9.120;2023-02-28T10:11:32;11.48;;;10.38;;
703;SDS011;335;48.694;9.120;2023-02-28T10:16:31;9.90;;;8.90;;
703;SDS011;335;48.694;9.120;2023-02-28T10:19:20;12.02;;;10.75;;
703;SDS011;335;48.694;9.120;2023-02-28T10:21:56;9.90;;;8.90;;
703;SDS011;335;48.694;9.120;2023-02-28T10:27:01;10.25;;;9.25;;
703;SDS011;335;48.694;9.120;2023-02-28T10:29:37;10.55;;;9.55;;
703;SDS011;335;48.694;9.120;2023-02-28T10:32:05;11.70;;;10.48;;
703;SDS011;335;48.694;9.120;2023-02-28T10:34:31;10.83;;;9.63;;
703;SDS011;335;48.694;9.120;2023-02-28T10:36:56;9.77;;;8.87;;
703;SDS011;335;48.694;9.120;2023-02-28T10:39:33;9.57;;;8.40;;
703;SDS011;335;48.694;9.120;2023-02-28T10:42:22;10.60;;;9.50;;
703;SDS011;335;48.694;9.120;2023-02-28T10:47:36;10.57;;;9.25;;
703;SDS011;335;48.694;9.120;2023-02-28T10:53:15;10.05;;;9.10;;
703;SDS011;335;48.694;9.120;2023-02-28T10:55:44;10.90;;;9.80;;
703;SDS011;335;48.694;9.120;2023-02-28T10:58:22;10.83;;;8.90;;
703;SDS011;335;48.694;9.120;2023-02-28T11:00:49;10.85;;;9.85;;
703;SDS011;335;48.694;9.120;2023-02-28T11:03:29;10.25;;;9.13;;
703;SDS011;335;48.694;9.120;2023-02-28T11:05:57;9.88;;;8.98;;
703;SDS011;335;48.694;9.120;2023-02-28T11:08:23;9.18;;;8.38;;
703;SDS011;335;48.694;9.120;2023-02-28T11:10:56;9.80;;;8.90;;
703;SDS011;335;48.694;9.120;2023-02-28T11:13:28;9.67;;;8.73;;
703;SDS011;335;48.694;9.120;2023-02-28T11:15:59;9.30;;;8.57;;
703;SDS011;335;48.694;9.120;2023-02-28T11:18:29;8.37;;;7.67;;
703;SDS011;335;48.694;9.120;2023-02-28T11:20:56;10.33;;;9.43;;
703;SDS011;335;48.694;9.120;2023-02-28T11:23:24;9.40;;;8.40;;
703;SDS011;335;48.694;9.120;2023-02-28T11:25:51;11.70;;;8.10;;
703;SDS011;335;48.694;9.120;2023-02-28T11:28:26;10.30;;;9.33;;
703;SDS011;335;48.694;9.120;2023-02-28T11:36:14;8.90;;;8.10;;
703;SDS011;335;48.694;9.120;2023-02-28T11:38:42;9.23;;;8.33;;
703;SDS011;335;48.694;9.120;2023-02-28T11:41:20;8.90;;;8.20;;
703;SDS011;335;48.694;9.120;2023-02-28T11:46:56;8.23;;;7.53;;
703;SDS011;335;48.694;9.120;2023-02-28T11:52:15;9.60;;;8.70;;
703;SDS011;335;48.694;9.120;2023-02-28T11:55:07;8.73;;;8.13;;
703;SDS011;335;48.694;9.120;2023-02-28T11:57:55;8.67;;;8.07;;
703;SDS011;335;48.694;9.120;2023-02-28T12:11:57;10.23;;;9.33;;
703;SDS011;335;48.694;9.120;2023-02-28T12:22:48;8.97;;;8.27;;
703;SDS011;335;48.694;9.120;2023-02-28T12:25:20;10.50;;;9.60;;
703;SDS011;335;48.694;9.120;2023-02-28T12:27:58;8.47;;;7.83;;
703;SDS011;335;48.694;9.120;2023-02-28T12:30:25;9.33;;;8.63;;
703;SDS011;335;48.694;9.120;2023-02-28T12:33:04;8.40;;;7.80;;
703;SDS011;335;48.694;9.120;2023-02-28T12:35:54;9.57;;;8.67;;
703;SDS011;335;48.694;9.120;2023-02-28T12:41:13;9.00;;;8.20;;
703;SDS011;335;48.694;9.120;2023-02-28T12:43:43;10.23;;;9.23;;
703;SDS011;335;48.694;9.120;2023-02-28T12:46:25;9.57;;;8.67;;
703;SDS011;335;48.694;9.120;2023-02-28T12:48:56;9.70;;;8.80;;
703;SDS011;335;48.694;9.120;2023-02-28T12:51:22;8.30;;;7.60;;
703;SDS011;335;48.694;9.120;2023-02-28T12:53:54;9.73;;;8.93;;
703;SDS011;335;48.694;9.120;2023-02-28T12:59:29;8.50;;;7.87;;
703;SDS011;335;48.694;9.120;2023-02-28T13:02:23;9.40;;;8.70;;
703;SDS011;335;48.694;9.120;2023-02-28T13:10:12;8.63;;;7.90;;
703;SDS011;335;48.694;9.120;2023-02-28T13:12:51;9.07;;;8.37;;
703;SDS011;335;48.694;9.120;2023-02-28T13:15:20;8.03;;;7.53;;
703;SDS011;335;48.694;9.120;2023-02-28T13:17:50;9.57;;;8.60;;
703;SDS011;335;48.694;9.120;2023-02-28T13:20:21;9.07;;;8.40;;
703;SDS011;335;48.694;9.120;2023-02-28T13:22:50;8.77;;;8.10;;
703;SDS011;335;48.694;9.120;2023-02-28T13:27:58;7.87;;;7.27;;
703;SDS011;335;48.694;9.120;2023-02-28T13:36:09;9.97;;;9.13;;
703;SDS011;335;48.694;9.120;2023-02-28T13:38:47;9.40;;;8.60;;
703;SDS011;335;48.694;9.120;2023-02-28T13:44:05;9.60;;;8.80;;
703;SDS011;335;48.694;9.120;2023-02-28T13:47:20;8.80;;;7.90;;
703;SDS011;335;48.694;9.120;2023-02-28T13:57:11;9.53;;;8.83;;
703;SDS011;335;48.694;9.120;2023-02-28T14:05:32;10.00;;;9.17;;
703;SDS011;335;48.694;9.120;2023-02-28T14:07:59;9.83;;;8.93;;
703;SDS011;335;48.694;9.120;2023-02-28T14:10:39;10.23;;;9.30;;
703;SDS011;335;48.694;9.120;2023-02-28T14:16:09;11.97;;;10.90;;
703;SDS011;335;48.694;9.120;2023-02-28T14:18:37;9.70;;;8.90;;
703;SDS011;335;48.694;9.120;2023-02-28T14:24:01;11.40;;;10.40;;
703;SDS011;335;48.694;9.120;2023-02-28T14:38:42;10.83;;;9.73;;
703;SDS011;335;48.694;9.120;2023-02-28T14:41:20;11.37;;;10.23;;
703;SDS011;335;48.694;9.120;2023-02-28T14:44:16;10.03;;;9.23;;
703;SDS011;335;48.694;9.120;2023-02-28T14:46:43;10.97;;;9.97;;
703;SDS011;335;48.694;9.120;2023-02-28T14:49:15;11.53;;;10.53;;
703;SDS011;335;48.694;9.120;2023-02-28T14:51:43;10.73;;;9.93;;
703;SDS011;335;48.694;9.120;2023-02-28T14:54:12;10.97;;;10.17;;
703;SDS011;335;48.694;9.120;2023-02-28T14:56:39;10.20;;;9.33;;
703;SDS011;335;48.694;9.120;2023-02-28T14:59:05;9.87;;;9.20;;
703;SDS011;335;48.694;9.120;2023-02-28T15:01:42;10.50;;;9.60;;
703;SDS011;335;48.694;9.120;2023-02-28T15:04:24;10.73;;;9.83;;
703;SDS011;335;48.694;9.120;2023-02-28T15:12:51;11.43;;;10.30;;
703;SDS011;335;48.694;9.120;2023-02-28T15:15:21;9.67;;;8.87;;
703;SDS011;335;48.694;9.120;2023-02-28T15:17:49;9.87;;;9.07;;
703;SDS011;335;48.694;9.120;2023-02-28T15:20:15;10.87;;;9.97;;
703;SDS011;335;48.694;9.120;2023-02-28T15:22:41;10.50;;;9.70;;
703;SDS011;335;48.694;9.120;2023-02-28T15:25:07;10.27;;;9.43;;
703;SDS011;335;48.694;9.120;2023-02-28T15:27:37;12.50;;;10.63;;
703;SDS011;335;48.694;9.120;2023-02-28T15:30:06;10.23;;;9.27;;
703;SDS011;335;48.694;9.120;2023-02-28T15:32:34;9.87;;;8.90;;
703;SDS011;335;48.694;9.120;2023-02-28T15:35:43;10.27;;;9.33;;
703;SDS011;335;48.694;9.120;2023-02-28T15:40:53;12.98;;;11.50;;
703;SDS011;335;48.694;9.120;2023-02-28T15:43:26;10.32;;;9.32;;
703;SDS011;335;48.694;9.120;2023-02-28T15:45:57;10.98;;;9.90;;
703;SDS011;335;48.694;9.120;2023-02-28T15:53:28;10.80;;;9.80;;
703;SDS011;335;48.694;9.120;2023-02-28T15:55:58;10.90;;;9.80;;
703;SDS011;335;48.694;9.120;2023-02-28T15:58:28;10.15;;;9.15;;
703;SDS011;335;48.694;9.120;2023-02-28T16:01:07;10.33;;;9.37;;
703;SDS011;335;48.694;9.120;2023-02-28T16:03:46;10.68;;;9.57;;
703;SDS011;335;48.694;9.120;2023-02-28T16:08:41;10.25;;;9.18;;
703;SDS011;335;48.694;9.120;2023-02-28T16:11:08;10.60;;;9.60;;
703;SDS011;335;48.694;9.120;2023-02-28T16:13:34;10.65;;;8.95;;
703;SDS011;335;48.694;9.120;2023-02-28T16:16:00;11.43;;;10.33;;
703;SDS011;335;48.694;9.120;2023-02-28T16:18:26;11.48;;;10.32;;
703;SDS011;335;48.694;9.120;2023-02-28T16:20:51;9.70;;;8.80;;
703;SDS011;335;48.694;9.120;2023-02-28T16:23:17;11.50;;;10.33;;
703;SDS011;335;48.694;9.120;2023-02-28T16:25:42;12.13;;;10.93;;
703;SDS011;335;48.694;9.120;2023-02-28T16:28:31;12.38;;;11.27;;
703;SDS011;335;48.694;9.120;2023-02-28T16:30:57;12.05;;;10.98;;
703;SDS011;335;48.694;9.120;2023-02-28T16:33:22;11.77;;;10.57;;
703;SDS011;335;48.694;9.120;2023-02-28T16:35:48;15.97;;;13.40;;
703;SDS011;335;48.694;9.120;2023-02-28T16:38:14;13.40;;;11.85;;
703;SDS011;335;48.694;9.120;2023-02-28T16:40:39;14.10;;;12.60;;
703;SDS011;335;48.694;9.120;2023-02-28T16:43:06;12.37;;;11.17;;
703;SDS011;335;48.694;9.120;2023-02-28T16:45:33;13.13;;;11.48;;
703;SDS011;335;48.694;9.120;2023-02-28T16:47:58;11.70;;;10.07;;
703;SDS011;335;48.694;9.120;2023-02-28T16:50:26;11.97;;;10.67;;
703;SDS011;335;48.694;9.120;2023-02-28T16:52:52;14.70;;;10.75;;
703;SDS011;335;48.694;9.120;2023-02-28T16:55:19;12.88;;;11.35;;
703;SDS011;335;48.694;9.120;2023-02-28T16:57:44;13.57;;;10.97;;
703;SDS011;335;48.694;9.120;2023-02-28T17:00:14;11.25;;;10.25;;
703;SDS011;335;48.694;9.120;2023-02-28T17:02:39;11.47;;;10.30;;
703;SDS011;335;48.694;9.120;2023-02-28T17:05:05;12.67;;;10.63;;
703;SDS011;335;48.694;9.120;2023-02-28T17:07:31;13.85;;;11.15;;
703;SDS011;335;48.694;9.120;2023-02-28T17:09:56;12.43;;;11.13;;
703;SDS011;335;48.694;9.120;2023-02-28T17:12:22;15.00;;;11.70;;
703;SDS011;335;48.694;9.120;2023-02-28T17:14:47;11.93;;;10.67;;
703;SDS011;335;48.694;9.120;2023-02-28T17:17:17;12.47;;;10.80;;
703;SDS011;335;48.694;9.120;2023-02-28T17:19:43;13.45;;;12.05;;
703;SDS011;335;48.694;9.120;2023-02-28T17:22:09;12.40;;;11.20;;
703;SDS011;335;48.694;9.120;2023-02-28T17:24:34;13.50;;;12.15;;
703;SDS011;335;48.694;9.120;2023-02-28T17:27:00;15.40;;;11.40;;
703;SDS011;335;48.694;9.120;2023-02-28T17:29:26;13.52;;;11.15;;
703;SDS011;335;48.694;9.120;2023-02-28T17:31:51;14.70;;;11.60;;
703;SDS011;335;48.694;9.120;2023-02-28T17:34:17;12.90;;;10.90;;
703;SDS011;335;48.694;9.120;2023-02-28T17:36:45;12.52;;;11.27;;
703;SDS011;335;48.694;9.120;2023-02-28T17:39:11;13.95;;;10.65;;
703;SDS011;335;48.694;9.120;2023-02-28T17:41:39;12.20;;;10.95;;
703;SDS011;335;48.694;9.120;2023-02-28T17:44:05;15.60;;;12.35;;
703;SDS011;335;48.694;9.120;2023-02-28T17:46:31;12.47;;;11.17;;
703;SDS011;335;48.694;9.120;2023-02-28T17:48:57;12.50;;;10.47;;
703;SDS011;335;48.694;9.120;2023-02-28T17:51:23;13.77;;;11.87;;
703;SDS011;335;48.694;9.120;2023-02-28T17:53:49;14.93;;;11.43;;
703;SDS011;335;48.694;9.120;2023-02-28T17:56:19;13.13;;;11.70;;
703;SDS011;335;48.694;9.120;2023-02-28T17:58:45;12.20;;;11.00;;
703;SDS011;335;48.694;9.120;2023-02-28T18:01:11;14.37;;;11.10;;
703;SDS011;335;48.694;9.120;2023-02-28T18:03:36;13.30;;;11.90;;
703;SDS011;335;48.694;9.120;2023-02-28T18:06:02;12.50;;;11.30;;
703;SDS011;335;48.694;9.120;2023-02-28T18:08:28;14.63;;;12.67;;
703;SDS011;335;48.694;9.120;2023-02-28T18:10:53;14.60;;;12.00;;